sensor_id;sensor_type;location;lat;lon;timestamp;temperature;humidity
37232;DHT22;23125;48.156;15.954;2023-03-15T00:00:48;11.10;49.70
37232;DHT22;23125;48.156;15.954;2023-03-15T00:03:15;11.10;49.70
37232;DHT22;23125;48.156;15.954;2023-03-15T00:05:42;11.10;49.70
37232;DHT22;23125;48.156;15.954;2023-03-15T00:08:08;11.00;49.70
37232;DHT22;23125;48.156;15.954;2023-03-15T00:10:34;11.00;49.70
37232;DHT22;23125;48.156;15.954;2023-03-15T00:13:00;11.10;49.70
37232;DHT22;23125;48.156;15.954;2023-03-15T00:15:26;11.00;49.70
37232;DHT22;23125;48.156;15.954;2023-03-15T00:17:51;11.00;49.70
37232;DHT22;23125;48.156;15.954;2023-03-15T00:20:17;11.10;49.70
37232;DHT22;23125;48.156;15.954;2023-03-15T00:22:44;11.00;49.70
37232;DHT22;23125;48.156;15.954;2023-03-15T00:25:11;11.10;49.70
37232;DHT22;23125;48.156;15.954;2023-03-15T00:27:37;11.00;49.60
37232;DHT22;23125;48.156;15.954;2023-03-15T00:30:03;11.00;49.60
37232;DHT22;23125;48.156;15.954;2023-03-15T00:32:29;11.00;49.60
37232;DHT22;23125;48.156;15.954;2023-03-15T00:34:56;11.00;49.60
37232;DHT22;23125;48.156;15.954;2023-03-15T00:37:22;11.00;49.50
37232;DHT22;23125;48.156;15.954;2023-03-15T00:39:51;11.00;49.60
37232;DHT22;23125;48.156;15.954;2023-03-15T00:42:20;11.00;49.50
37232;DHT22;23125;48.156;15.954;2023-03-15T00:44:46;11.00;49.60
37232;DHT22;23125;48.156;15.954;2023-03-15T00:47:13;10.90;49.60
37232;DHT22;23125;48.156;15.954;2023-03-15T00:49:40;10.90;49.60
37232;DHT22;23125;48.156;15.954;2023-03-15T00:52:06;10.90;49.60
37232;DHT22;23125;48.156;15.954;2023-03-15T00:54:33;10.90;49.60
37232;DHT22;23125;48.156;15.954;2023-03-15T00:56:59;10.90;49.60
37232;DHT22;23125;48.156;15.954;2023-03-15T00:59:28;10.90;49.60
37232;DHT22;23125;48.156;15.954;2023-03-15T01:02:01;10.90;49.60
37232;DHT22;23125;48.156;15.954;2023-03-15T01:04:27;10.90;49.60
37232;DHT22;23125;48.156;15.954;2023-03-15T01:06:53;10.80;49.60
37232;DHT22;23125;48.156;15.954;2023-03-15T01:09:20;10.90;49.60
37232;DHT22;23125;48.156;15.954;2023-03-15T01:11:46;10.80;49.60
37232;DHT22;23125;48.156;15.954;2023-03-15T01:14:12;10.80;49.60
37232;DHT22;23125;48.156;15.954;2023-03-15T01:16:37;10.80;49.60
37232;DHT22;23125;48.156;15.954;2023-03-15T01:19:03;10.80;49.60
37232;DHT22;23125;48.156;15.954;2023-03-15T01:21:29;10.80;49.60
37232;DHT22;23125;48.156;15.954;2023-03-15T01:23:55;10.80;49.60
37232;DHT22;23125;48.156;15.954;2023-03-15T01:26:22;10.80;49.60
37232;DHT22;23125;48.156;15.954;2023-03-15T01:28:48;10.80;49.60
37232;DHT22;23125;48.156;15.954;2023-03-15T01:31:25;10.80;49.70
37232;DHT22;23125;48.156;15.954;2023-03-15T01:33:51;10.70;49.60
37232;DHT22;23125;48.156;15.954;2023-03-15T01:36:18;10.70;49.70
37232;DHT22;23125;48.156;15.954;2023-03-15T01:38:44;10.70;49.60
37232;DHT22;23125;48.156;15.954;2023-03-15T01:41:12;10.70;49.60
37232;DHT22;23125;48.156;15.954;2023-03-15T01:43:38;10.70;49.70
37232;DHT22;23125;48.156;15.954;2023-03-15T01:46:13;10.70;49.70
37232;DHT22;23125;48.156;15.954;2023-03-15T01:48:47;10.70;49.70
37232;DHT22;23125;48.156;15.954;2023-03-15T01:51:22;10.70;49.80
37232;DHT22;23125;48.156;15.954;2023-03-15T01:53:59;10.70;49.80
37232;DHT22;23125;48.156;15.954;2023-03-15T01:56:28;10.70;49.80
37232;DHT22;23125;48.156;15.954;2023-03-15T01:58:57;10.70;49.80
37232;DHT22;23125;48.156;15.954;2023-03-15T02:01:26;10.70;49.80
37232;DHT22;23125;48.156;15.954;2023-03-15T02:04:06;10.70;49.90
37232;DHT22;23125;48.156;15.954;2023-03-15T02:06:33;10.70;49.90
37232;DHT22;23125;48.156;15.954;2023-03-15T02:09:07;10.80;49.90
37232;DHT22;23125;48.156;15.954;2023-03-15T02:11:34;10.70;49.90
37232;DHT22;23125;48.156;15.954;2023-03-15T02:14:02;10.80;50.00
37232;DHT22;23125;48.156;15.954;2023-03-15T02:16:29;10.80;50.00
37232;DHT22;23125;48.156;15.954;2023-03-15T02:18:56;10.80;50.00
37232;DHT22;23125;48.156;15.954;2023-03-15T02:22:05;10.80;50.00
37232;DHT22;23125;48.156;15.954;2023-03-15T02:27:32;10.80;50.00
37232;DHT22;23125;48.156;15.954;2023-03-15T02:30:00;10.80;50.00
37232;DHT22;23125;48.156;15.954;2023-03-15T02:32:31;10.80;50.00
37232;DHT22;23125;48.156;15.954;2023-03-15T02:34:57;10.80;50.50
37232;DHT22;23125;48.156;15.954;2023-03-15T02:37:23;10.80;49.90
37232;DHT22;23125;48.156;15.954;2023-03-15T02:39:49;10.70;49.80
37232;DHT22;23125;48.156;15.954;2023-03-15T02:42:15;10.70;49.80
37232;DHT22;23125;48.156;15.954;2023-03-15T02:44:44;10.70;49.90
37232;DHT22;23125;48.156;15.954;2023-03-15T02:47:16;10.70;50.00
37232;DHT22;23125;48.156;15.954;2023-03-15T02:49:51;10.70;50.10
37232;DHT22;23125;48.156;15.954;2023-03-15T02:52:19;10.70;50.10
37232;DHT22;23125;48.156;15.954;2023-03-15T02:54:45;10.70;50.20
37232;DHT22;23125;48.156;15.954;2023-03-15T02:57:12;10.70;50.20
37232;DHT22;23125;48.156;15.954;2023-03-15T02:59:39;10.60;50.20
37232;DHT22;23125;48.156;15.954;2023-03-15T03:02:07;10.60;50.20
37232;DHT22;23125;48.156;15.954;2023-03-15T03:04:34;10.60;50.20
37232;DHT22;23125;48.156;15.954;2023-03-15T03:06:59;10.60;50.30
37232;DHT22;23125;48.156;15.954;2023-03-15T03:09:25;10.60;50.30
37232;DHT22;23125;48.156;15.954;2023-03-15T03:11:51;10.60;50.40
37232;DHT22;23125;48.156;15.954;2023-03-15T03:14:17;10.60;50.40
37232;DHT22;23125;48.156;15.954;2023-03-15T03:16:43;10.60;50.40
37232;DHT22;23125;48.156;15.954;2023-03-15T03:19:10;10.60;50.20
37232;DHT22;23125;48.156;15.954;2023-03-15T03:21:39;10.60;50.30
37232;DHT22;23125;48.156;15.954;2023-03-15T03:24:08;10.50;50.30
37232;DHT22;23125;48.156;15.954;2023-03-15T03:26:35;10.50;50.30
37232;DHT22;23125;48.156;15.954;2023-03-15T03:29:02;10.50;50.40
37232;DHT22;23125;48.156;15.954;2023-03-15T03:31:30;10.50;50.60
37232;DHT22;23125;48.156;15.954;2023-03-15T03:33:59;10.50;50.70
37232;DHT22;23125;48.156;15.954;2023-03-15T03:36:25;10.40;50.50
37232;DHT22;23125;48.156;15.954;2023-03-15T03:38:52;10.40;50.60
37232;DHT22;23125;48.156;15.954;2023-03-15T03:41:22;10.40;50.60
37232;DHT22;23125;48.156;15.954;2023-03-15T03:43:48;10.40;50.70
37232;DHT22;23125;48.156;15.954;2023-03-15T03:46:14;10.30;50.60
37232;DHT22;23125;48.156;15.954;2023-03-15T03:48:39;10.40;50.60
37232;DHT22;23125;48.156;15.954;2023-03-15T03:51:05;10.30;50.70
37232;DHT22;23125;48.156;15.954;2023-03-15T03:53:31;10.30;50.70
37232;DHT22;23125;48.156;15.954;2023-03-15T03:55:57;10.30;50.70
37232;DHT22;23125;48.156;15.954;2023-03-15T03:58:23;10.30;50.80
37232;DHT22;23125;48.156;15.954;2023-03-15T04:00:51;10.30;50.70
37232;DHT22;23125;48.156;15.954;2023-03-15T04:03:20;10.30;50.70
37232;DHT22;23125;48.156;15.954;2023-03-15T04:05:56;10.20;50.70
37232;DHT22;23125;48.156;15.954;2023-03-15T04:08:23;10.20;50.70
37232;DHT22;23125;48.156;15.954;2023-03-15T04:10:54;10.20;50.60
37232;DHT22;23125;48.156;15.954;2023-03-15T04:13:21;10.20;50.60
37232;DHT22;23125;48.156;15.954;2023-03-15T04:15:49;10.20;50.60
37232;DHT22;23125;48.156;15.954;2023-03-15T04:18:16;10.20;50.60
37232;DHT22;23125;48.156;15.954;2023-03-15T04:20:42;10.20;50.70
37232;DHT22;23125;48.156;15.954;2023-03-15T04:23:31;10.20;50.70
37232;DHT22;23125;48.156;15.954;2023-03-15T04:25:59;10.10;50.70
37232;DHT22;23125;48.156;15.954;2023-03-15T04:28:24;10.10;50.70
37232;DHT22;23125;48.156;15.954;2023-03-15T04:30:50;10.10;50.70
37232;DHT22;23125;48.156;15.954;2023-03-15T04:33:16;10.10;50.80
37232;DHT22;23125;48.156;15.954;2023-03-15T04:35:42;10.10;50.80
37232;DHT22;23125;48.156;15.954;2023-03-15T04:38:08;10.00;50.70
37232;DHT22;23125;48.156;15.954;2023-03-15T04:40:34;10.00;50.60
37232;DHT22;23125;48.156;15.954;2023-03-15T04:43:02;10.10;50.80
37232;DHT22;23125;48.156;15.954;2023-03-15T04:45:29;10.00;50.70
37232;DHT22;23125;48.156;15.954;2023-03-15T04:47:56;10.00;50.70
37232;DHT22;23125;48.156;15.954;2023-03-15T04:50:23;10.00;50.80
37232;DHT22;23125;48.156;15.954;2023-03-15T04:52:50;10.00;50.80
37232;DHT22;23125;48.156;15.954;2023-03-15T04:55:16;10.00;50.70
37232;DHT22;23125;48.156;15.954;2023-03-15T04:57:42;9.90;50.80
37232;DHT22;23125;48.156;15.954;2023-03-15T05:00:09;9.90;50.70
37232;DHT22;23125;48.156;15.954;2023-03-15T05:02:37;9.90;50.70
37232;DHT22;23125;48.156;15.954;2023-03-15T05:05:10;9.90;50.80
37232;DHT22;23125;48.156;15.954;2023-03-15T05:07:37;9.90;50.80
37232;DHT22;23125;48.156;15.954;2023-03-15T05:10:04;9.90;50.80
37232;DHT22;23125;48.156;15.954;2023-03-15T05:12:31;9.80;50.60
37232;DHT22;23125;48.156;15.954;2023-03-15T05:14:58;9.80;50.50
37232;DHT22;23125;48.156;15.954;2023-03-15T05:17:25;9.70;50.60
37232;DHT22;23125;48.156;15.954;2023-03-15T05:19:51;9.70;50.70
37232;DHT22;23125;48.156;15.954;2023-03-15T05:22:17;9.70;50.80
37232;DHT22;23125;48.156;15.954;2023-03-15T05:24:43;9.70;50.70
37232;DHT22;23125;48.156;15.954;2023-03-15T05:27:10;9.60;50.70
37232;DHT22;23125;48.156;15.954;2023-03-15T05:29:38;9.60;50.80
37232;DHT22;23125;48.156;15.954;2023-03-15T05:32:04;9.60;50.80
37232;DHT22;23125;48.156;15.954;2023-03-15T05:34:30;9.50;50.70
37232;DHT22;23125;48.156;15.954;2023-03-15T05:36:58;9.50;50.60
37232;DHT22;23125;48.156;15.954;2023-03-15T05:39:24;9.50;50.60
37232;DHT22;23125;48.156;15.954;2023-03-15T05:41:50;9.40;50.60
37232;DHT22;23125;48.156;15.954;2023-03-15T05:44:16;9.40;50.50
37232;DHT22;23125;48.156;15.954;2023-03-15T05:46:42;9.30;50.50
37232;DHT22;23125;48.156;15.954;2023-03-15T05:49:08;9.30;50.50
37232;DHT22;23125;48.156;15.954;2023-03-15T05:51:34;9.30;50.40
37232;DHT22;23125;48.156;15.954;2023-03-15T05:54:00;9.20;50.20
37232;DHT22;23125;48.156;15.954;2023-03-15T05:56:26;9.20;50.40
37232;DHT22;23125;48.156;15.954;2023-03-15T05:58:52;9.20;50.40
37232;DHT22;23125;48.156;15.954;2023-03-15T06:01:18;9.10;50.30
37232;DHT22;23125;48.156;15.954;2023-03-15T06:03:43;9.10;50.30
37232;DHT22;23125;48.156;15.954;2023-03-15T06:06:09;9.10;50.00
37232;DHT22;23125;48.156;15.954;2023-03-15T06:08:35;9.00;49.70
37232;DHT22;23125;48.156;15.954;2023-03-15T06:11:01;9.00;49.80
37232;DHT22;23125;48.156;15.954;2023-03-15T06:13:27;8.90;49.60
37232;DHT22;23125;48.156;15.954;2023-03-15T06:15:53;8.90;49.60
37232;DHT22;23125;48.156;15.954;2023-03-15T06:18:18;8.80;49.70
37232;DHT22;23125;48.156;15.954;2023-03-15T06:20:44;8.80;50.30
37232;DHT22;23125;48.156;15.954;2023-03-15T06:23:10;8.80;49.60
37232;DHT22;23125;48.156;15.954;2023-03-15T06:25:36;8.80;49.60
37232;DHT22;23125;48.156;15.954;2023-03-15T06:28:02;8.80;49.70
37232;DHT22;23125;48.156;15.954;2023-03-15T06:30:28;8.80;49.60
37232;DHT22;23125;48.156;15.954;2023-03-15T06:32:54;8.80;49.60
37232;DHT22;23125;48.156;15.954;2023-03-15T06:35:20;8.80;49.60
37232;DHT22;23125;48.156;15.954;2023-03-15T06:37:47;8.80;49.60
37232;DHT22;23125;48.156;15.954;2023-03-15T06:40:13;8.80;49.60
37232;DHT22;23125;48.156;15.954;2023-03-15T06:42:40;8.80;49.50
37232;DHT22;23125;48.156;15.954;2023-03-15T06:45:09;8.80;49.30
37232;DHT22;23125;48.156;15.954;2023-03-15T06:47:35;8.80;49.20
37232;DHT22;23125;48.156;15.954;2023-03-15T06:50:01;8.80;49.20
37232;DHT22;23125;48.156;15.954;2023-03-15T06:52:28;8.80;49.10
37232;DHT22;23125;48.156;15.954;2023-03-15T06:54:54;8.80;49.10
37232;DHT22;23125;48.156;15.954;2023-03-15T06:57:19;8.80;49.00
37232;DHT22;23125;48.156;15.954;2023-03-15T06:59:45;8.80;48.90
37232;DHT22;23125;48.156;15.954;2023-03-15T07:02:16;8.80;48.90
37232;DHT22;23125;48.156;15.954;2023-03-15T07:04:42;8.80;48.70
37232;DHT22;23125;48.156;15.954;2023-03-15T07:07:10;8.80;48.70
37232;DHT22;23125;48.156;15.954;2023-03-15T07:09:37;8.70;48.60
37232;DHT22;23125;48.156;15.954;2023-03-15T07:12:03;8.70;48.60
37232;DHT22;23125;48.156;15.954;2023-03-15T07:14:29;8.70;48.60
37232;DHT22;23125;48.156;15.954;2023-03-15T07:16:55;8.70;48.50
37232;DHT22;23125;48.156;15.954;2023-03-15T07:19:20;8.70;48.60
37232;DHT22;23125;48.156;15.954;2023-03-15T07:21:46;8.70;48.60
37232;DHT22;23125;48.156;15.954;2023-03-15T07:24:12;8.80;48.60
37232;DHT22;23125;48.156;15.954;2023-03-15T07:26:38;8.80;48.40
37232;DHT22;23125;48.156;15.954;2023-03-15T07:29:04;8.80;49.00
37232;DHT22;23125;48.156;15.954;2023-03-15T07:31:30;8.80;48.40
37232;DHT22;23125;48.156;15.954;2023-03-15T07:33:56;8.80;48.30
37232;DHT22;23125;48.156;15.954;2023-03-15T07:36:22;8.80;48.30
37232;DHT22;23125;48.156;15.954;2023-03-15T07:38:48;8.90;48.40
37232;DHT22;23125;48.156;15.954;2023-03-15T07:41:15;8.90;48.40
37232;DHT22;23125;48.156;15.954;2023-03-15T07:43:40;8.90;48.20
37232;DHT22;23125;48.156;15.954;2023-03-15T07:46:06;8.90;48.30
37232;DHT22;23125;48.156;15.954;2023-03-15T07:48:32;9.00;48.20
37232;DHT22;23125;48.156;15.954;2023-03-15T07:50:59;9.00;48.10
37232;DHT22;23125;48.156;15.954;2023-03-15T07:53:25;9.10;48.20
37232;DHT22;23125;48.156;15.954;2023-03-15T07:55:51;9.10;48.10
37232;DHT22;23125;48.156;15.954;2023-03-15T07:58:17;9.20;48.00
37232;DHT22;23125;48.156;15.954;2023-03-15T08:00:43;9.10;47.60
37232;DHT22;23125;48.156;15.954;2023-03-15T08:03:09;9.10;47.50
37232;DHT22;23125;48.156;15.954;2023-03-15T08:05:35;9.20;47.60
37232;DHT22;23125;48.156;15.954;2023-03-15T08:08:01;9.20;47.60
37232;DHT22;23125;48.156;15.954;2023-03-15T08:10:27;9.20;47.60
37232;DHT22;23125;48.156;15.954;2023-03-15T08:12:53;9.20;47.50
37232;DHT22;23125;48.156;15.954;2023-03-15T08:15:19;9.20;47.40
37232;DHT22;23125;48.156;15.954;2023-03-15T08:17:48;9.20;47.30
37232;DHT22;23125;48.156;15.954;2023-03-15T08:20:15;9.30;47.40
37232;DHT22;23125;48.156;15.954;2023-03-15T08:22:46;9.30;47.40
37232;DHT22;23125;48.156;15.954;2023-03-15T08:25:14;9.30;47.30
37232;DHT22;23125;48.156;15.954;2023-03-15T08:27:40;9.30;47.00
37232;DHT22;23125;48.156;15.954;2023-03-15T08:30:11;9.30;47.20
37232;DHT22;23125;48.156;15.954;2023-03-15T08:32:38;9.40;47.50
37232;DHT22;23125;48.156;15.954;2023-03-15T08:35:06;9.50;47.40
37232;DHT22;23125;48.156;15.954;2023-03-15T08:37:32;9.50;47.40
37232;DHT22;23125;48.156;15.954;2023-03-15T08:39:58;9.60;47.50
37232;DHT22;23125;48.156;15.954;2023-03-15T08:42:35;9.80;47.40
37232;DHT22;23125;48.156;15.954;2023-03-15T08:45:06;9.80;47.30
37232;DHT22;23125;48.156;15.954;2023-03-15T08:47:36;10.00;47.50
37232;DHT22;23125;48.156;15.954;2023-03-15T08:50:06;10.10;47.40
37232;DHT22;23125;48.156;15.954;2023-03-15T08:52:33;10.20;47.20
37232;DHT22;23125;48.156;15.954;2023-03-15T08:54:59;10.20;46.70
37232;DHT22;23125;48.156;15.954;2023-03-15T08:57:25;10.20;46.60
37232;DHT22;23125;48.156;15.954;2023-03-15T08:59:54;10.30;46.50
37232;DHT22;23125;48.156;15.954;2023-03-15T09:02:21;10.40;46.70
37232;DHT22;23125;48.156;15.954;2023-03-15T09:04:48;10.50;46.80
37232;DHT22;23125;48.156;15.954;2023-03-15T09:07:14;10.50;46.60
37232;DHT22;23125;48.156;15.954;2023-03-15T09:09:43;10.70;46.50
37232;DHT22;23125;48.156;15.954;2023-03-15T09:12:14;10.70;46.20
37232;DHT22;23125;48.156;15.954;2023-03-15T09:14:41;10.80;45.90
37232;DHT22;23125;48.156;15.954;2023-03-15T09:17:07;10.70;45.60
37232;DHT22;23125;48.156;15.954;2023-03-15T09:19:33;10.80;45.60
37232;DHT22;23125;48.156;15.954;2023-03-15T09:21:59;10.80;45.50
37232;DHT22;23125;48.156;15.954;2023-03-15T09:24:25;10.80;45.30
37232;DHT22;23125;48.156;15.954;2023-03-15T09:26:51;10.80;45.10
37232;DHT22;23125;48.156;15.954;2023-03-15T09:29:16;10.80;45.10
37232;DHT22;23125;48.156;15.954;2023-03-15T09:31:42;10.90;45.50
37232;DHT22;23125;48.156;15.954;2023-03-15T09:34:08;11.00;45.80
37232;DHT22;23125;48.156;15.954;2023-03-15T09:36:35;11.10;45.80
37232;DHT22;23125;48.156;15.954;2023-03-15T09:39:01;11.20;45.40
37232;DHT22;23125;48.156;15.954;2023-03-15T09:41:43;11.30;45.60
37232;DHT22;23125;48.156;15.954;2023-03-15T09:50:19;11.60;45.10
37232;DHT22;23125;48.156;15.954;2023-03-15T09:52:59;11.60;44.70
37232;DHT22;23125;48.156;15.954;2023-03-15T09:55:28;11.70;44.40
37232;DHT22;23125;48.156;15.954;2023-03-15T09:57:59;11.70;44.20
37232;DHT22;23125;48.156;15.954;2023-03-15T10:03:46;11.80;44.60
37232;DHT22;23125;48.156;15.954;2023-03-15T10:06:30;11.90;44.50
37232;DHT22;23125;48.156;15.954;2023-03-15T10:09:09;12.00;44.50
37232;DHT22;23125;48.156;15.954;2023-03-15T10:14:20;12.20;43.90
37232;DHT22;23125;48.156;15.954;2023-03-15T10:16:50;12.20;43.90
37232;DHT22;23125;48.156;15.954;2023-03-15T10:22:02;12.10;43.60
37232;DHT22;23125;48.156;15.954;2023-03-15T10:26:58;12.10;43.50
37232;DHT22;23125;48.156;15.954;2023-03-15T10:29:29;12.10;43.80
37232;DHT22;23125;48.156;15.954;2023-03-15T10:31:55;12.00;43.60
37232;DHT22;23125;48.156;15.954;2023-03-15T10:34:22;12.10;44.40
37232;DHT22;23125;48.156;15.954;2023-03-15T10:36:51;12.20;44.60
37232;DHT22;23125;48.156;15.954;2023-03-15T10:39:21;12.30;44.60
37232;DHT22;23125;48.156;15.954;2023-03-15T10:41:49;12.40;44.60
37232;DHT22;23125;48.156;15.954;2023-03-15T10:44:18;12.50;44.90
37232;DHT22;23125;48.156;15.954;2023-03-15T10:47:10;12.70;44.80
37232;DHT22;23125;48.156;15.954;2023-03-15T10:49:39;12.80;45.00
37232;DHT22;23125;48.156;15.954;2023-03-15T10:52:22;12.90;44.50
37232;DHT22;23125;48.156;15.954;2023-03-15T10:54:50;12.90;44.10
37232;DHT22;23125;48.156;15.954;2023-03-15T10:57:19;12.90;43.80
37232;DHT22;23125;48.156;15.954;2023-03-15T11:00:01;12.80;43.40
37232;DHT22;23125;48.156;15.954;2023-03-15T11:02:31;12.80;43.50
37232;DHT22;23125;48.156;15.954;2023-03-15T11:05:15;12.70;43.40
37232;DHT22;23125;48.156;15.954;2023-03-15T11:07:56;12.60;43.70
37232;DHT22;23125;48.156;15.954;2023-03-15T11:10:26;12.50;43.80
37232;DHT22;23125;48.156;15.954;2023-03-15T11:15:42;12.60;44.60
37232;DHT22;23125;48.156;15.954;2023-03-15T11:18:20;12.60;44.50
37232;DHT22;23125;48.156;15.954;2023-03-15T11:20:50;12.70;44.60
37232;DHT22;23125;48.156;15.954;2023-03-15T11:23:21;12.70;44.80
37232;DHT22;23125;48.156;15.954;2023-03-15T11:25:50;12.90;45.10
37232;DHT22;23125;48.156;15.954;2023-03-15T11:28:25;12.90;44.90
37232;DHT22;23125;48.156;15.954;2023-03-15T11:30:52;12.90;44.40
37232;DHT22;23125;48.156;15.954;2023-03-15T11:36:22;12.70;43.70
37232;DHT22;23125;48.156;15.954;2023-03-15T11:38:49;12.60;43.60
37232;DHT22;23125;48.156;15.954;2023-03-15T11:49:49;12.40;44.60
37232;DHT22;23125;48.156;15.954;2023-03-15T11:52:18;12.40;44.80
37232;DHT22;23125;48.156;15.954;2023-03-15T11:54:45;12.50;44.80
37232;DHT22;23125;48.156;15.954;2023-03-15T12:00:18;12.60;45.10
37232;DHT22;23125;48.156;15.954;2023-03-15T12:02:53;12.60;45.00
37232;DHT22;23125;48.156;15.954;2023-03-15T12:05:42;12.60;44.80
37232;DHT22;23125;48.156;15.954;2023-03-15T12:08:23;12.60;45.00
37232;DHT22;23125;48.156;15.954;2023-03-15T12:16:34;12.60;44.40
37232;DHT22;23125;48.156;15.954;2023-03-15T12:19:22;12.60;44.50
37232;DHT22;23125;48.156;15.954;2023-03-15T12:21:55;12.70;44.80
37232;DHT22;23125;48.156;15.954;2023-03-15T12:24:36;12.70;44.70
37232;DHT22;23125;48.156;15.954;2023-03-15T12:27:14;12.60;44.70
37232;DHT22;23125;48.156;15.954;2023-03-15T12:29:43;12.70;44.70
37232;DHT22;23125;48.156;15.954;2023-03-15T12:32:19;12.60;44.20
37232;DHT22;23125;48.156;15.954;2023-03-15T12:34:46;12.60;44.10
37232;DHT22;23125;48.156;15.954;2023-03-15T12:37:26;12.60;44.10
37232;DHT22;23125;48.156;15.954;2023-03-15T12:50:50;12.60;44.10
37232;DHT22;23125;48.156;15.954;2023-03-15T12:58:46;12.50;44.10
37232;DHT22;23125;48.156;15.954;2023-03-15T13:01:14;12.50;44.00
37232;DHT22;23125;48.156;15.954;2023-03-15T13:03:41;12.50;44.20
37232;DHT22;23125;48.156;15.954;2023-03-15T13:06:10;12.50;44.20
37232;DHT22;23125;48.156;15.954;2023-03-15T13:11:36;12.50;44.40
37232;DHT22;23125;48.156;15.954;2023-03-15T13:16:50;12.70;44.90
37232;DHT22;23125;48.156;15.954;2023-03-15T13:19:21;12.80;45.00
37232;DHT22;23125;48.156;15.954;2023-03-15T13:22:03;12.90;44.70
37232;DHT22;23125;48.156;15.954;2023-03-15T13:29:54;12.90;44.10
37232;DHT22;23125;48.156;15.954;2023-03-15T13:32:22;13.00;44.30
37232;DHT22;23125;48.156;15.954;2023-03-15T13:34:48;13.00;44.00
37232;DHT22;23125;48.156;15.954;2023-03-15T13:37:20;13.00;43.80
37232;DHT22;23125;48.156;15.954;2023-03-15T13:40:13;13.00;43.70
37232;DHT22;23125;48.156;15.954;2023-03-15T13:42:40;13.00;43.60
37232;DHT22;23125;48.156;15.954;2023-03-15T13:45:14;12.90;43.30
37232;DHT22;23125;48.156;15.954;2023-03-15T13:47:41;12.90;43.30
37232;DHT22;23125;48.156;15.954;2023-03-15T13:50:13;12.80;43.20
37232;DHT22;23125;48.156;15.954;2023-03-15T13:52:41;12.80;43.20
37232;DHT22;23125;48.156;15.954;2023-03-15T13:55:11;12.80;43.40
37232;DHT22;23125;48.156;15.954;2023-03-15T13:57:38;12.80;43.30
37232;DHT22;23125;48.156;15.954;2023-03-15T14:00:15;12.80;43.30
37232;DHT22;23125;48.156;15.954;2023-03-15T14:05:11;12.70;43.00
37232;DHT22;23125;48.156;15.954;2023-03-15T14:07:42;12.70;43.00
37232;DHT22;23125;48.156;15.954;2023-03-15T14:12:42;12.60;42.80
37232;DHT22;23125;48.156;15.954;2023-03-15T14:15:26;12.50;42.70
37232;DHT22;23125;48.156;15.954;2023-03-15T14:18:01;12.50;42.70
37232;DHT22;23125;48.156;15.954;2023-03-15T14:20:31;12.50;42.50
37232;DHT22;23125;48.156;15.954;2023-03-15T14:23:01;12.40;42.60
37232;DHT22;23125;48.156;15.954;2023-03-15T14:25:28;12.30;42.50
37232;DHT22;23125;48.156;15.954;2023-03-15T14:27:59;12.30;42.70
37232;DHT22;23125;48.156;15.954;2023-03-15T14:30:27;12.30;42.90
37232;DHT22;23125;48.156;15.954;2023-03-15T14:32:56;12.40;42.90
37232;DHT22;23125;48.156;15.954;2023-03-15T14:35:30;12.40;42.70
37232;DHT22;23125;48.156;15.954;2023-03-15T14:38:23;12.30;42.50
37232;DHT22;23125;48.156;15.954;2023-03-15T14:40:51;12.40;42.80
37232;DHT22;23125;48.156;15.954;2023-03-15T14:43:17;12.40;42.70
37232;DHT22;23125;48.156;15.954;2023-03-15T14:45:45;12.40;42.60
37232;DHT22;23125;48.156;15.954;2023-03-15T14:50:47;12.40;42.60
37232;DHT22;23125;48.156;15.954;2023-03-15T14:53:16;12.40;42.40
37232;DHT22;23125;48.156;15.954;2023-03-15T14:55:42;12.40;42.40
37232;DHT22;23125;48.156;15.954;2023-03-15T14:58:14;12.40;42.40
37232;DHT22;23125;48.156;15.954;2023-03-15T15:00:41;12.40;42.20
37232;DHT22;23125;48.156;15.954;2023-03-15T15:03:19;12.30;41.70
37232;DHT22;23125;48.156;15.954;2023-03-15T15:05:47;12.30;41.70
37232;DHT22;23125;48.156;15.954;2023-03-15T15:08:19;12.20;41.70
37232;DHT22;23125;48.156;15.954;2023-03-15T15:10:50;12.10;41.60
37232;DHT22;23125;48.156;15.954;2023-03-15T15:13:24;12.00;41.60
37232;DHT22;23125;48.156;15.954;2023-03-15T15:15:50;12.00;41.80
37232;DHT22;23125;48.156;15.954;2023-03-15T15:18:16;11.90;42.20
37232;DHT22;23125;48.156;15.954;2023-03-15T15:20:43;11.90;41.70
37232;DHT22;23125;48.156;15.954;2023-03-15T15:23:31;11.80;41.70
37232;DHT22;23125;48.156;15.954;2023-03-15T15:26:00;11.80;41.70
37232;DHT22;23125;48.156;15.954;2023-03-15T15:28:28;11.80;41.80
37232;DHT22;23125;48.156;15.954;2023-03-15T15:30:54;11.70;41.60
37232;DHT22;23125;48.156;15.954;2023-03-15T15:33:20;11.70;41.50
37232;DHT22;23125;48.156;15.954;2023-03-15T15:35:52;11.60;41.50
37232;DHT22;23125;48.156;15.954;2023-03-15T15:38:19;11.60;41.50
37232;DHT22;23125;48.156;15.954;2023-03-15T15:40:46;11.50;41.50
37232;DHT22;23125;48.156;15.954;2023-03-15T15:43:12;11.50;41.50
37232;DHT22;23125;48.156;15.954;2023-03-15T15:45:38;11.40;41.50
37232;DHT22;23125;48.156;15.954;2023-03-15T15:48:04;11.40;41.60
37232;DHT22;23125;48.156;15.954;2023-03-15T15:50:32;11.40;41.50
37232;DHT22;23125;48.156;15.954;2023-03-15T15:53:02;11.40;41.50
37232;DHT22;23125;48.156;15.954;2023-03-15T15:55:32;11.30;41.30
37232;DHT22;23125;48.156;15.954;2023-03-15T15:57:59;11.20;41.80
37232;DHT22;23125;48.156;15.954;2023-03-15T16:00:26;11.20;41.40
37232;DHT22;23125;48.156;15.954;2023-03-15T16:02:54;11.20;41.50
37232;DHT22;23125;48.156;15.954;2023-03-15T16:05:22;11.10;41.50
37232;DHT22;23125;48.156;15.954;2023-03-15T16:07:51;11.10;41.40
37232;DHT22;23125;48.156;15.954;2023-03-15T16:10:20;11.00;41.30
37232;DHT22;23125;48.156;15.954;2023-03-15T16:12:47;11.00;41.20
37232;DHT22;23125;48.156;15.954;2023-03-15T16:15:15;10.90;41.10
37232;DHT22;23125;48.156;15.954;2023-03-15T16:17:41;10.90;41.20
37232;DHT22;23125;48.156;15.954;2023-03-15T16:20:08;10.80;41.30
37232;DHT22;23125;48.156;15.954;2023-03-15T16:22:39;10.80;41.30
37232;DHT22;23125;48.156;15.954;2023-03-15T16:25:10;10.70;41.20
37232;DHT22;23125;48.156;15.954;2023-03-15T16:27:39;10.70;41.20
37232;DHT22;23125;48.156;15.954;2023-03-15T16:30:13;10.60;41.20
37232;DHT22;23125;48.156;15.954;2023-03-15T16:32:43;10.60;41.20
37232;DHT22;23125;48.156;15.954;2023-03-15T16:35:11;10.50;41.10
37232;DHT22;23125;48.156;15.954;2023-03-15T16:37:40;10.40;41.10
37232;DHT22;23125;48.156;15.954;2023-03-15T16:40:28;10.30;41.10
37232;DHT22;23125;48.156;15.954;2023-03-15T16:42:55;10.10;41.10
37232;DHT22;23125;48.156;15.954;2023-03-15T16:45:21;10.00;41.30
37232;DHT22;23125;48.156;15.954;2023-03-15T16:47:48;9.90;41.30